createdAt,value
2019-04-05T00:01:26.222Z,99.90
2019-04-05T00:03:57.440Z,99.90
2019-04-05T00:06:28.879Z,99.90
2019-04-05T00:09:00.046Z,99.90
2019-04-05T00:11:31.363Z,99.90
2019-04-05T00:14:02.515Z,99.90
2019-04-05T00:16:34.434Z,99.90
2019-04-05T00:19:05.754Z,99.90
2019-04-05T00:21:36.998Z,99.90
2019-04-05T00:24:08.321Z,99.90
2019-04-05T00:26:39.507Z,99.90
2019-04-05T00:29:10.642Z,99.90
2019-04-05T00:31:41.889Z,99.90
2019-04-05T00:34:13.099Z,99.90
2019-04-05T00:36:44.322Z,99.90
2019-04-05T00:39:15.477Z,99.90
2019-04-05T00:41:47.082Z,99.90
2019-04-05T00:44:18.850Z,99.90
2019-04-05T00:46:50.480Z,99.90
2019-04-05T00:49:22.048Z,99.90
2019-04-05T00:51:53.369Z,99.90
2019-04-05T00:54:24.711Z,99.90
2019-04-05T00:56:56.285Z,99.90
2019-04-05T00:59:27.899Z,99.90
2019-04-05T01:01:59.215Z,99.90
2019-04-05T01:04:30.519Z,99.90
2019-04-05T01:07:01.778Z,99.90
2019-04-05T01:09:33.110Z,99.90
2019-04-05T01:12:04.446Z,99.90
2019-04-05T01:14:36.525Z,99.90
2019-04-05T01:17:07.749Z,99.90
2019-04-05T01:19:43.631Z,99.90
2019-04-05T01:22:15.888Z,99.90
2019-04-05T01:24:47.332Z,99.90
2019-04-05T01:27:19.872Z,99.90
2019-04-05T01:29:51.107Z,99.90
2019-04-05T01:32:22.425Z,99.90
2019-04-05T01:34:54.304Z,99.90
2019-04-05T01:37:26.237Z,99.90
2019-04-05T01:39:58.486Z,99.90
2019-04-05T01:42:31.120Z,99.90
2019-04-05T01:45:03.180Z,99.90
2019-04-05T01:47:34.847Z,99.90
2019-04-05T01:50:07.878Z,99.90
2019-04-05T01:52:39.616Z,99.90
2019-04-05T01:55:11.891Z,99.90
2019-04-05T01:57:43.308Z,99.90
2019-04-05T02:00:15.473Z,99.90
2019-04-05T02:02:46.782Z,99.90
2019-04-05T02:05:18.191Z,99.90
2019-04-05T02:07:49.976Z,99.90
2019-04-05T02:10:21.389Z,99.90
2019-04-05T02:12:53.355Z,99.90
2019-04-05T02:15:30.647Z,99.90
2019-04-05T02:18:01.923Z,99.90
2019-04-05T02:20:33.320Z,99.90
2019-04-05T02:23:05.011Z,99.90
2019-04-05T02:25:36.337Z,99.90
2019-04-05T02:28:07.645Z,99.90
2019-04-05T02:30:38.888Z,99.90
2019-04-05T02:33:10.229Z,99.90
2019-04-05T02:35:41.557Z,99.90
2019-04-05T02:38:13.489Z,99.90
2019-04-05T02:40:47.394Z,99.90
2019-04-05T02:43:22.170Z,99.90
2019-04-05T02:45:56.363Z,99.90
2019-04-05T02:48:31.295Z,99.90
2019-04-05T02:51:06.627Z,99.90
2019-04-05T02:53:40.553Z,99.90
2019-04-05T02:56:14.865Z,99.90
2019-04-05T02:58:47.165Z,99.90
2019-04-05T03:01:18.797Z,99.90
2019-04-05T03:03:50.192Z,99.90
2019-04-05T03:06:23.522Z,99.90
2019-04-05T03:08:56.287Z,99.90
2019-04-05T03:11:33.949Z,99.90
2019-04-05T03:14:07.848Z,99.90
2019-04-05T03:16:44.338Z,99.90
2019-04-05T03:19:24.307Z,99.90
2019-04-05T03:22:04.895Z,99.90
2019-04-05T03:24:40.586Z,99.90
2019-04-05T03:27:21.017Z,99.90
2019-04-05T03:29:53.590Z,99.90
2019-04-05T03:32:26.293Z,99.90
2019-04-05T03:34:58.960Z,99.90
2019-04-05T03:37:30.409Z,99.90
2019-04-05T03:40:02.730Z,99.90
2019-04-05T03:42:34.435Z,99.90
2019-04-05T03:45:06.280Z,99.90
2019-04-05T03:47:37.969Z,99.90
2019-04-05T03:50:09.417Z,99.90
2019-04-05T03:52:40.786Z,99.90
2019-04-05T03:55:12.152Z,99.90
2019-04-05T03:57:44.351Z,99.90
2019-04-05T04:00:15.873Z,99.90
2019-04-05T04:02:47.322Z,99.90
2019-04-05T04:05:18.667Z,99.90
2019-04-05T04:07:50.083Z,99.90
2019-04-05T04:10:22.875Z,99.90
2019-04-05T04:12:54.201Z,99.90
2019-04-05T04:15:26.679Z,99.90
2019-04-05T04:17:58.815Z,99.90
2019-04-05T04:20:41.870Z,99.90
2019-04-05T04:23:13.585Z,99.90
2019-04-05T04:25:45.818Z,99.90
2019-04-05T04:28:17.351Z,99.90
2019-04-05T04:30:48.776Z,99.90
2019-04-05T04:33:20.244Z,99.90
2019-04-05T04:35:52.957Z,99.90
2019-04-05T04:38:25.026Z,99.90
2019-04-05T04:40:56.863Z,99.90
2019-04-05T04:43:28.198Z,99.90
2019-04-05T04:46:00.040Z,99.90
2019-04-05T04:48:32.951Z,99.90
2019-04-05T04:51:05.115Z,99.90
2019-04-05T04:53:36.907Z,99.90
2019-04-05T04:56:08.740Z,99.90
2019-04-05T04:58:40.398Z,99.90
2019-04-05T05:01:11.905Z,99.90
2019-04-05T05:03:43.937Z,99.90
2019-04-05T05:06:15.762Z,99.90
2019-04-05T05:08:47.594Z,99.90
2019-04-05T05:11:19.623Z,99.90
2019-04-05T05:13:50.953Z,99.90
2019-04-05T05:16:22.315Z,99.90
2019-04-05T05:18:53.961Z,99.90
2019-04-05T05:21:26.203Z,99.90
2019-04-05T05:23:57.909Z,99.90
2019-04-05T05:26:29.882Z,99.90
2019-04-05T05:29:01.699Z,99.90
2019-04-05T05:31:33.008Z,99.90
2019-04-05T05:34:05.164Z,99.90
2019-04-05T05:36:36.869Z,99.90
2019-04-05T05:39:09.191Z,99.90
2019-04-05T05:41:40.562Z,99.90
2019-04-05T05:44:11.831Z,99.90
2019-04-05T05:46:43.808Z,99.90
2019-04-05T05:49:15.179Z,99.90
2019-04-05T05:51:48.697Z,99.90
2019-04-05T05:54:19.962Z,99.90
2019-04-05T05:56:51.504Z,99.90
2019-04-05T05:59:22.823Z,99.90
2019-04-05T06:01:53.934Z,99.90
2019-04-05T06:04:25.115Z,99.90
2019-04-05T06:06:56.321Z,99.90
2019-04-05T06:09:27.558Z,99.90
2019-04-05T06:11:58.849Z,99.90
2019-04-05T06:14:30.411Z,99.90
2019-04-05T06:17:01.778Z,99.90
2019-04-05T06:19:33.376Z,99.90
2019-04-05T06:22:04.697Z,99.90
2019-04-05T06:24:35.871Z,99.90
2019-04-05T06:27:07.220Z,99.90
2019-04-05T06:29:38.780Z,99.90
2019-04-05T06:32:10.010Z,99.90
2019-04-05T06:34:41.285Z,99.90
2019-04-05T06:37:12.459Z,99.90
2019-04-05T06:39:43.807Z,99.90
2019-04-05T06:42:15.276Z,99.90
2019-04-05T06:44:46.515Z,99.90
2019-04-05T06:47:17.753Z,99.90
2019-04-05T06:49:48.858Z,99.90
2019-04-05T06:52:20.391Z,99.90
2019-04-05T06:54:51.575Z,99.90
2019-04-05T06:57:23.157Z,99.90
2019-04-05T06:59:54.765Z,99.90
2019-04-05T07:02:26.088Z,99.90
2019-04-05T07:04:57.207Z,99.90
2019-04-05T07:07:28.488Z,99.90
2019-04-05T07:09:59.721Z,99.90
2019-04-05T07:12:30.957Z,99.90
2019-04-05T07:15:02.986Z,99.90
2019-04-05T07:17:34.157Z,99.90
2019-04-05T07:20:05.782Z,99.90
2019-04-05T07:22:39.389Z,99.90
2019-04-05T07:25:10.034Z,99.90
2019-04-05T07:27:41.257Z,99.90
2019-04-05T07:30:13.061Z,99.90
2019-04-05T07:32:44.246Z,99.90
2019-04-05T07:35:15.531Z,99.90
2019-04-05T07:37:46.715Z,99.90
2019-04-05T07:40:18.647Z,99.90
2019-04-05T07:42:49.837Z,99.90
2019-04-05T07:45:21.411Z,99.90
2019-04-05T07:47:52.877Z,99.90
2019-04-05T07:50:24.106Z,99.90
2019-04-05T07:52:55.303Z,99.90
2019-04-05T07:55:26.860Z,99.90
2019-04-05T07:57:58.100Z,99.90
2019-04-05T08:00:51.033Z,99.90
2019-04-05T08:03:23.391Z,99.90
2019-04-05T08:05:55.239Z,99.90
2019-04-05T08:08:45.117Z,99.90
2019-04-05T08:11:17.829Z,99.90
2019-04-05T08:13:51.579Z,99.90
2019-04-05T08:16:22.911Z,99.90
2019-04-05T08:18:58.157Z,99.90
2019-04-05T08:21:27.433Z,99.90
2019-04-05T08:23:59.365Z,99.90
2019-04-05T08:26:30.578Z,99.90
2019-04-05T08:29:01.752Z,99.90
2019-04-05T08:31:33.045Z,99.90
2019-04-05T08:34:23.509Z,99.90
2019-04-05T08:36:54.790Z,99.90
2019-04-05T08:39:26.226Z,99.90
2019-04-05T08:41:58.110Z,99.90
2019-04-05T08:44:29.370Z,99.90
2019-04-05T08:47:00.635Z,99.90
2019-04-05T08:49:32.226Z,99.90
2019-04-05T08:52:03.407Z,99.90
2019-04-05T08:54:36.774Z,96.90
2019-04-05T08:57:07.733Z,95.20
2019-04-05T08:59:39.284Z,92.20
2019-04-05T09:02:10.980Z,81.10
2019-04-05T09:04:42.259Z,77.30
2019-04-05T09:07:13.503Z,67.50
2019-04-05T09:09:45.093Z,59.20
2019-04-05T09:12:16.785Z,59.00
2019-04-05T09:14:47.983Z,60.20
2019-04-05T09:17:19.515Z,64.80
2019-04-05T09:19:53.726Z,66.70
2019-04-05T09:22:23.860Z,69.00
2019-04-05T09:24:55.413Z,65.80
2019-04-05T09:27:26.557Z,65.40
2019-04-05T09:29:57.918Z,64.00
2019-04-05T09:32:29.364Z,60.40
2019-04-05T09:35:00.477Z,59.00
2019-04-05T09:37:31.750Z,58.00
2019-04-05T09:40:03.252Z,62.00
2019-04-05T09:42:34.970Z,67.10
2019-04-05T09:45:07.229Z,70.90
2019-04-05T09:47:38.522Z,79.00
2019-04-05T09:50:10.604Z,85.80
2019-04-05T09:52:42.097Z,92.20
2019-04-05T09:55:14.285Z,93.80
2019-04-05T09:57:45.956Z,93.90
2019-04-05T10:00:26.010Z,93.30
2019-04-05T10:02:57.197Z,96.10
2019-04-05T10:05:28.797Z,95.70
2019-04-05T10:07:59.990Z,96.60
2019-04-05T10:10:31.256Z,93.80
2019-04-05T10:13:02.863Z,92.70
2019-04-05T10:15:34.204Z,91.80
2019-04-05T10:18:05.982Z,91.30
2019-04-05T10:20:38.965Z,89.70
2019-04-05T10:23:10.298Z,89.80
2019-04-05T10:25:43.966Z,86.40
2019-04-05T10:28:14.564Z,84.70
2019-04-05T10:30:46.156Z,86.70
2019-04-05T10:33:17.816Z,89.60
2019-04-05T10:35:49.087Z,92.60
2019-04-05T10:38:20.391Z,95.40
2019-04-05T10:40:52.105Z,99.90
2019-04-05T10:43:23.762Z,99.90
2019-04-05T10:45:55.118Z,99.90
2019-04-05T10:48:26.391Z,99.90
2019-04-05T10:50:57.603Z,99.90
2019-04-05T10:53:28.777Z,99.90
2019-04-05T10:56:00.059Z,99.90
2019-04-05T10:58:31.426Z,99.90
2019-04-05T11:01:02.719Z,99.90
2019-04-05T11:03:34.018Z,99.90
2019-04-05T11:06:05.390Z,99.90
2019-04-05T11:08:36.646Z,99.90
2019-04-05T11:11:07.899Z,99.90
2019-04-05T11:13:39.184Z,99.90
2019-04-05T11:16:10.464Z,99.90
2019-04-05T11:18:44.936Z,99.90
2019-04-05T11:21:16.205Z,99.90
2019-04-05T11:23:48.581Z,99.90
2019-04-05T11:26:19.815Z,99.90
2019-04-05T11:28:51.081Z,99.90
2019-04-05T11:31:22.330Z,99.90
2019-04-05T11:33:53.992Z,99.90
2019-04-05T11:36:26.416Z,99.90
2019-04-05T11:38:57.899Z,99.90
2019-04-05T11:41:31.372Z,99.90
2019-04-05T11:44:03.721Z,99.90
2019-04-05T11:46:38.769Z,99.90
2019-04-05T11:49:10.518Z,99.90
2019-04-05T11:51:43.250Z,99.90
2019-04-05T11:54:14.835Z,99.90
2019-04-05T11:56:46.160Z,99.90
2019-04-05T11:59:17.465Z,99.90
2019-04-05T12:02:06.560Z,99.90
2019-04-05T12:04:38.068Z,99.90
2019-04-05T12:07:09.257Z,99.90
2019-04-05T12:09:40.543Z,99.90
2019-04-05T12:12:11.877Z,99.90
2019-04-05T12:14:43.266Z,99.90
2019-04-05T12:17:14.576Z,99.90
2019-04-05T12:19:45.848Z,99.90
2019-04-05T12:22:19.812Z,99.90
2019-04-05T12:24:50.031Z,99.90
2019-04-05T12:27:21.848Z,99.90
2019-04-05T12:29:53.053Z,99.90
2019-04-05T12:32:33.356Z,99.90
2019-04-05T12:35:00.370Z,99.90
2019-04-05T12:37:31.662Z,99.90
2019-04-05T12:40:05.108Z,99.90
2019-04-05T12:42:35.810Z,99.90
2019-04-05T12:45:07.813Z,99.90
2019-04-05T12:47:39.462Z,99.90
2019-04-05T12:50:14.083Z,99.90
2019-04-05T12:52:44.254Z,99.90
2019-04-05T12:55:15.679Z,99.90
2019-04-05T12:57:48.428Z,99.90
2019-04-05T13:00:25.668Z,99.90
2019-04-05T13:02:57.023Z,99.90
2019-04-05T13:05:28.112Z,99.90
2019-04-05T13:07:59.216Z,99.90
2019-04-05T13:10:30.718Z,99.90
2019-04-05T13:13:01.935Z,99.90
2019-04-05T13:15:33.127Z,99.90
2019-04-05T13:18:04.595Z,99.90
2019-04-05T13:20:35.766Z,99.90
2019-04-05T13:23:07.111Z,99.90
2019-04-05T13:25:38.825Z,99.90
2019-04-05T13:28:13.570Z,99.90
2019-04-05T13:30:48.241Z,99.90
2019-04-05T13:33:18.271Z,99.90
2019-04-05T13:35:49.719Z,99.90
2019-04-05T13:38:21.346Z,99.90
2019-04-05T13:40:53.041Z,99.90
2019-04-05T13:43:24.679Z,99.90
2019-04-05T13:45:55.942Z,99.90
2019-04-05T13:48:27.606Z,99.90
2019-04-05T13:50:58.748Z,99.90
2019-04-05T13:53:29.893Z,99.90
2019-04-05T13:56:01.112Z,99.90
2019-04-05T13:58:32.257Z,99.90
2019-04-05T14:01:03.618Z,99.90
2019-04-05T14:03:35.222Z,99.90
2019-04-05T14:06:06.754Z,99.90
2019-04-05T14:08:41.143Z,99.90
2019-04-05T14:11:11.179Z,99.90
2019-04-05T14:13:43.051Z,99.90
2019-04-05T14:16:14.424Z,99.90
2019-04-05T14:18:49.540Z,99.90
2019-04-05T14:21:20.532Z,99.90
2019-04-05T14:23:53.339Z,99.90
2019-04-05T14:26:24.536Z,99.90
2019-04-05T14:28:55.739Z,99.90
2019-04-05T14:31:27.060Z,99.90
2019-04-05T14:33:58.328Z,99.90
2019-04-05T14:36:29.511Z,99.90
2019-04-05T14:39:00.887Z,99.90
2019-04-05T14:41:32.489Z,99.90
2019-04-05T14:44:03.759Z,99.90
2019-04-05T14:46:38.168Z,99.90
2019-04-05T14:49:08.690Z,99.90
2019-04-05T14:51:52.162Z,99.90
2019-04-05T14:54:13.355Z,99.90
2019-04-05T14:56:44.544Z,99.90
2019-04-05T14:59:15.954Z,99.90
2019-04-05T15:01:47.577Z,99.90
2019-04-05T15:04:19.199Z,99.90
2019-04-05T15:06:50.634Z,99.90
2019-04-05T15:09:25.587Z,99.90
2019-04-05T15:11:58.352Z,99.90
2019-04-05T15:14:29.271Z,99.90
2019-04-05T15:17:00.720Z,99.90
2019-04-05T15:19:32.013Z,99.90
2019-04-05T15:22:05.963Z,99.90
2019-04-05T15:24:36.297Z,99.90
2019-04-05T15:27:07.879Z,99.90
2019-04-05T15:29:39.080Z,99.90
2019-04-05T15:32:10.398Z,99.90
2019-04-05T15:34:41.784Z,99.90
2019-04-05T15:37:15.816Z,99.90
2019-04-05T15:39:46.295Z,99.90
2019-04-05T15:42:17.635Z,99.90
2019-04-05T15:44:48.982Z,99.90
2019-04-05T15:47:23.165Z,99.90
2019-04-05T15:49:53.207Z,99.90
2019-04-05T15:52:27.865Z,99.90
2019-04-05T15:54:58.065Z,99.90
2019-04-05T15:57:33.450Z,99.90
2019-04-05T16:00:04.777Z,99.90
2019-04-05T16:02:35.507Z,99.90
2019-04-05T16:05:07.963Z,99.90
2019-04-05T16:07:39.277Z,99.90
2019-04-05T16:10:12.240Z,99.90
2019-04-05T16:12:43.920Z,99.90
2019-04-05T16:15:15.363Z,99.90
2019-04-05T16:17:47.187Z,99.90
2019-04-05T16:20:19.021Z,99.90
2019-04-05T16:22:50.204Z,99.90
2019-04-05T16:25:21.553Z,99.90
2019-04-05T16:27:52.777Z,99.90
2019-04-05T16:30:24.173Z,99.90
2019-04-05T16:32:55.448Z,99.90
2019-04-05T16:35:26.662Z,99.90
2019-04-05T16:37:57.887Z,99.90
2019-04-05T16:40:31.304Z,99.90
2019-04-05T16:43:03.097Z,99.90
2019-04-05T16:45:34.920Z,99.90
2019-04-05T16:48:06.678Z,99.90
2019-04-05T16:50:37.858Z,99.90
2019-04-05T16:53:09.454Z,99.90
2019-04-05T16:55:40.662Z,99.90
2019-04-05T16:58:14.551Z,99.90
2019-04-05T17:00:45.002Z,99.90
2019-04-05T17:03:16.263Z,99.90
2019-04-05T17:05:47.737Z,99.90
2019-04-05T17:08:18.907Z,99.90
2019-04-05T17:10:50.527Z,99.90
2019-04-05T17:13:21.779Z,99.90
2019-04-05T17:15:53.019Z,99.90
2019-04-05T17:18:24.219Z,99.90
2019-04-05T17:20:55.411Z,99.90
2019-04-05T17:23:26.710Z,99.90
2019-04-05T17:25:57.914Z,99.90
2019-04-05T17:28:29.433Z,99.90
2019-04-05T17:31:00.617Z,99.90
2019-04-05T17:33:31.860Z,99.90
2019-04-05T17:36:03.077Z,99.90
2019-04-05T17:38:34.275Z,99.90
2019-04-05T17:41:05.903Z,99.90
2019-04-05T17:43:37.077Z,99.90
2019-04-05T17:46:08.701Z,99.90
2019-04-05T17:48:39.950Z,99.90
2019-04-05T17:51:11.308Z,99.90
2019-04-05T17:53:42.574Z,99.90
2019-04-05T17:56:14.518Z,99.90
2019-04-05T17:58:46.528Z,99.90
2019-04-05T18:01:18.163Z,99.90
2019-04-05T18:03:49.334Z,99.90
2019-04-05T18:06:20.522Z,99.90
2019-04-05T18:08:51.796Z,99.90
2019-04-05T18:11:23.220Z,99.90
2019-04-05T18:13:54.668Z,99.90
2019-04-05T18:16:25.876Z,99.90
2019-04-05T18:18:57.214Z,99.90
2019-04-05T18:21:28.658Z,99.90
2019-04-05T18:23:59.880Z,99.90
2019-04-05T18:26:31.411Z,99.90
2019-04-05T18:29:02.927Z,99.90
2019-04-05T18:31:34.507Z,99.90
2019-04-05T18:34:05.861Z,99.90
2019-04-05T18:36:37.116Z,99.90
2019-04-05T18:39:10.107Z,99.90
2019-04-05T18:41:41.311Z,99.90
2019-04-05T18:44:12.467Z,99.90
2019-04-05T18:46:45.015Z,99.90
2019-04-05T18:49:16.314Z,99.90
2019-04-05T18:51:48.592Z,99.90
2019-04-05T18:54:19.829Z,99.90
2019-04-05T18:56:51.290Z,99.90
2019-04-05T18:59:23.442Z,99.90
2019-04-05T19:01:55.008Z,99.90
2019-04-05T19:04:26.291Z,99.90
2019-04-05T19:06:57.561Z,99.90
2019-04-05T19:09:28.840Z,99.90
2019-04-05T19:12:00.337Z,99.90
2019-04-05T19:14:31.587Z,99.90
2019-04-05T19:17:03.320Z,99.90
2019-04-05T19:19:34.562Z,99.90
2019-04-05T19:22:06.202Z,99.90
2019-04-05T19:24:37.563Z,99.90
2019-04-05T19:27:08.921Z,99.90
2019-04-05T19:29:40.586Z,99.90
2019-04-05T19:50:03.452Z,99.90
2019-04-05T19:52:34.643Z,99.90
2019-04-05T19:55:06.847Z,99.90
2019-04-05T19:57:38.057Z,99.90
2019-04-05T20:00:10.230Z,99.90
2019-04-05T20:02:41.897Z,99.90
2019-04-05T20:05:14.082Z,99.90
2019-04-05T20:07:45.323Z,99.90
2019-04-05T20:10:16.709Z,99.90
2019-04-05T20:12:48.053Z,99.90
2019-04-05T20:15:19.445Z,99.90
2019-04-05T20:17:51.049Z,99.90
2019-04-05T20:20:22.602Z,99.90
2019-04-05T20:22:53.729Z,99.90
2019-04-05T20:25:25.289Z,99.90
2019-04-05T20:27:57.263Z,99.90
2019-04-05T20:30:28.595Z,99.90
2019-04-05T20:33:00.103Z,99.90
2019-04-05T20:35:32.208Z,99.90
2019-04-05T20:38:03.407Z,99.90
2019-04-05T20:40:34.724Z,99.90
2019-04-05T20:43:06.452Z,99.90
2019-04-05T20:45:37.628Z,99.90
2019-04-05T20:48:08.939Z,99.90
2019-04-05T20:50:40.290Z,99.90
2019-04-05T20:53:11.564Z,99.90
2019-04-05T20:55:42.921Z,99.90
2019-04-05T20:58:14.676Z,99.90
2019-04-05T21:00:46.191Z,99.90
2019-04-05T21:03:17.444Z,99.90
2019-04-05T21:05:48.943Z,99.90
2019-04-05T21:08:20.245Z,99.90
2019-04-05T21:10:51.641Z,99.90
2019-04-05T21:13:25.123Z,99.90
2019-04-05T21:15:56.494Z,99.90
2019-04-05T21:18:27.712Z,99.90
2019-04-05T21:20:59.202Z,99.90
2019-04-05T21:23:30.448Z,99.90
2019-04-05T21:26:01.711Z,99.90
2019-04-05T21:28:32.810Z,99.90
2019-04-05T21:31:04.176Z,99.90
2019-04-05T21:33:35.294Z,99.90
2019-04-05T21:36:06.678Z,99.90
2019-04-05T21:38:38.192Z,99.90
2019-04-05T21:41:09.767Z,99.90
2019-04-05T21:43:41.101Z,99.90
2019-04-05T21:46:12.192Z,99.90
2019-04-05T21:48:43.426Z,99.90
2019-04-05T21:51:14.619Z,99.90
2019-04-05T21:53:47.456Z,99.90
2019-04-05T21:56:19.048Z,99.90
2019-04-05T21:58:50.338Z,99.90
2019-04-05T22:01:23.025Z,99.90
2019-04-05T22:03:55.037Z,99.90
2019-04-05T22:06:26.350Z,99.90
2019-04-05T22:08:57.514Z,99.90
2019-04-05T22:11:29.046Z,99.90
2019-04-05T22:14:00.142Z,99.90
2019-04-05T22:16:31.791Z,99.90
2019-04-05T22:19:03.039Z,99.90
2019-04-05T22:21:34.199Z,99.90
2019-04-05T22:24:05.529Z,99.90
2019-04-05T22:26:36.737Z,99.90
2019-04-05T22:29:07.932Z,99.90
2019-04-05T22:31:39.068Z,99.90
2019-04-05T22:34:10.742Z,99.90
2019-04-05T22:36:42.004Z,99.90
2019-04-05T22:39:13.193Z,99.90
2019-04-05T22:41:44.309Z,99.90
2019-04-05T22:44:15.483Z,99.90
2019-04-05T22:46:46.677Z,99.90
2019-04-05T22:49:17.756Z,99.90
2019-04-05T22:51:48.898Z,99.90
2019-04-05T22:54:20.008Z,99.90
2019-04-05T22:56:51.571Z,99.90
2019-04-05T22:59:22.798Z,99.90
2019-04-05T23:01:54.125Z,99.90
2019-04-05T23:04:25.289Z,99.90
2019-04-05T23:06:56.849Z,99.90
2019-04-05T23:09:28.225Z,99.90
2019-04-05T23:12:00.112Z,99.90
2019-04-05T23:14:31.654Z,99.90
2019-04-05T23:17:02.773Z,99.90
2019-04-05T23:19:34.012Z,99.90
2019-04-05T23:22:05.360Z,99.90
2019-04-05T23:24:36.648Z,99.90
2019-04-05T23:27:07.827Z,99.90
2019-04-05T23:29:39.478Z,99.90
2019-04-05T23:32:11.033Z,99.90
2019-04-05T23:34:42.393Z,99.90
2019-04-05T23:37:13.722Z,99.90
2019-04-05T23:39:45.142Z,99.90
2019-04-05T23:42:16.631Z,99.90
2019-04-05T23:44:48.046Z,99.90
2019-04-05T23:47:19.888Z,99.90
2019-04-05T23:49:50.971Z,99.90
2019-04-05T23:52:22.425Z,99.90
2019-04-05T23:54:53.521Z,99.90
2019-04-05T23:57:24.683Z,99.90
2019-04-05T23:59:55.785Z,99.90
